Time;durP1;ratioP1;P1;durP2;ratioP2;P2;SDS_P1;SDS_P2;PMS_P1;PMS_P2;Temp;Humidity;BMP_temperature;BMP_pressure;BME280_temperature;BME280_humidity;BME280_pressure;Samples;Min_cycle;Max_cycle;Signal;HPM_P1;HPM_P2
2023/03/19 00:01:07;;;;;;;6.47;4.70;;;14.30;1.00;;;;;;5051185;28;20482;-50
2023/03/19 00:03:33;;;;;;;9.73;5.45;;;14.30;1.00;;;;;;5041933;28;20032;-49
2023/03/19 00:05:59;;;;;;;9.15;4.93;;;14.30;1.00;;;;;;5052820;28;20025;-51
2023/03/19 00:08:25;;;;;;;7.63;4.60;;;14.30;1.00;;;;;;5054171;28;20028;-51
2023/03/19 00:10:51;;;;;;;7.38;4.47;;;14.30;1.00;;;;;;5053453;28;20029;-49
2023/03/19 00:13:17;;;;;;;7.60;4.53;;;14.20;1.00;;;;;;5040231;28;20533;-51
2023/03/19 00:15:43;;;;;;;6.95;4.40;;;14.20;1.00;;;;;;5053738;28;20037;-53
2023/03/19 00:18:09;;;;;;;6.72;4.40;;;14.20;1.00;;;;;;5054147;28;20215;-53
2023/03/19 00:20:35;;;;;;;9.82;4.43;;;14.20;1.00;;;;;;5052461;28;20175;-47
2023/03/19 00:23:01;;;;;;;8.40;4.60;;;14.10;1.00;;;;;;5054257;28;20604;-53
2023/03/19 00:25:26;;;;;;;8.90;4.70;;;14.10;1.00;;;;;;5052120;28;20108;-50
2023/03/19 00:27:53;;;;;;;6.68;5.05;;;14.10;1.00;;;;;;5054293;28;20032;-52
2023/03/19 00:30:20;;;;;;;9.40;5.25;;;14.10;1.00;;;;;;5052924;28;20024;-47
2023/03/19 00:32:46;;;;;;;7.70;4.40;;;14.10;1.00;;;;;;5044633;28;20040;-51
2023/03/19 00:35:12;;;;;;;9.35;5.05;;;14.10;1.00;;;;;;5047679;28;20029;-50
2023/03/19 00:37:37;;;;;;;6.53;4.40;;;14.10;1.00;;;;;;5051494;28;20052;-49
2023/03/19 00:40:04;;;;;;;8.35;4.97;;;14.00;1.00;;;;;;5043075;28;20033;-47
2023/03/19 00:42:30;;;;;;;6.88;3.78;;;14.10;1.00;;;;;;5054013;28;20425;-49
2023/03/19 00:44:56;;;;;;;6.20;3.47;;;14.10;1.00;;;;;;5051857;28;20047;-50
2023/03/19 00:47:22;;;;;;;5.13;3.63;;;14.10;1.00;;;;;;5049153;28;20021;-49
2023/03/19 00:49:48;;;;;;;10.35;7.00;;;14.00;1.00;;;;;;5053714;28;20044;-51
2023/03/19 00:52:14;;;;;;;11.02;6.88;;;14.10;1.00;;;;;;5052969;28;20021;-51
2023/03/19 00:54:40;;;;;;;19.67;7.82;;;14.10;1.00;;;;;;5053788;28;20040;-50
2023/03/19 00:57:06;;;;;;;14.68;9.20;;;14.10;1.00;;;;;;5051211;28;20116;-47
2023/03/19 00:59:32;;;;;;;15.85;7.95;;;14.00;1.00;;;;;;5053447;28;20096;-51
2023/03/19 01:01:58;;;;;;;12.15;7.15;;;14.00;1.00;;;;;;5050352;28;20025;-50
2023/03/19 01:04:23;;;;;;;18.15;9.23;;;14.00;1.00;;;;;;5050726;28;20017;-50
2023/03/19 01:06:49;;;;;;;14.40;8.65;;;14.00;1.00;;;;;;5052260;28;20033;-51
2023/03/19 01:09:15;;;;;;;15.70;8.55;;;14.00;1.00;;;;;;5051704;28;20032;-51
2023/03/19 01:11:41;;;;;;;14.57;7.82;;;14.00;1.00;;;;;;5051856;28;20505;-49
2023/03/19 01:14:07;;;;;;;10.95;7.65;;;14.00;1.00;;;;;;5050420;28;20037;-49
2023/03/19 01:16:33;;;;;;;11.45;7.70;;;14.00;1.00;;;;;;5052025;28;20056;-48
2023/03/19 01:19:00;;;;;;;15.30;8.43;;;14.00;1.00;;;;;;5052415;28;20029;-48
2023/03/19 01:21:29;;;;;;;14.05;8.23;;;14.00;1.00;;;;;;5053180;28;20036;-49
2023/03/19 01:23:56;;;;;;;18.92;10.40;;;14.00;1.00;;;;;;5052168;28;20032;-48
2023/03/19 01:26:22;;;;;;;14.10;11.10;;;13.90;1.00;;;;;;5052997;28;20096;-53
2023/03/19 01:28:47;;;;;;;18.55;11.30;;;13.90;1.00;;;;;;5051935;28;20033;-49
2023/03/19 01:31:13;;;;;;;21.42;13.30;;;13.90;1.00;;;;;;5049731;28;20075;-51
2023/03/19 01:33:39;;;;;;;21.25;13.63;;;13.80;1.00;;;;;;5036971;28;20394;-48
2023/03/19 01:36:05;;;;;;;24.02;17.00;;;13.80;1.00;;;;;;5053047;28;20093;-52
2023/03/19 01:38:31;;;;;;;29.77;17.48;;;13.80;1.00;;;;;;5051787;28;20539;-47
2023/03/19 01:40:57;;;;;;;24.40;17.95;;;13.80;1.00;;;;;;5052915;28;20033;-54
2023/03/19 01:43:24;;;;;;;28.50;20.20;;;13.80;1.00;;;;;;5051470;28;20090;-52
2023/03/19 01:46:00;;;;;;;30.25;21.00;;;13.80;1.00;;;;;;5050772;28;20032;-51
2023/03/19 01:48:41;;;;;;;32.83;22.10;;;13.80;1.00;;;;;;5052730;28;20107;-47
2023/03/19 01:51:09;;;;;;;28.63;21.25;;;13.70;1.00;;;;;;5052357;28;20543;-51
2023/03/19 01:53:38;;;;;;;35.55;25.00;;;13.70;1.00;;;;;;5051652;28;20129;-49
2023/03/19 01:56:18;;;;;;;37.15;26.25;;;13.60;1.00;;;;;;5052860;28;20432;-48
2023/03/19 01:58:47;;;;;;;35.72;25.15;;;13.60;1.00;;;;;;5052033;28;20037;-52
2023/03/19 02:01:13;;;;;;;39.15;26.02;;;13.60;1.00;;;;;;5050924;28;20029;-52
2023/03/19 02:03:40;;;;;;;38.85;28.23;;;13.60;1.00;;;;;;5044707;28;20088;-54
2023/03/19 02:06:07;;;;;;;38.28;25.95;;;13.60;1.00;;;;;;5034866;28;20029;-50
2023/03/19 02:08:35;;;;;;;37.72;26.80;;;13.50;1.00;;;;;;5051727;28;20033;-53
2023/03/19 02:11:01;;;;;;;37.35;26.65;;;13.50;1.00;;;;;;5050908;28;20033;-54
2023/03/19 02:13:27;;;;;;;36.40;27.90;;;13.40;1.00;;;;;;5051686;28;20485;-54
2023/03/19 02:15:53;;;;;;;39.97;28.02;;;13.40;1.00;;;;;;5047773;28;20044;-54
2023/03/19 02:18:20;;;;;;;45.92;29.75;;;13.40;1.00;;;;;;5054547;28;20434;-52
2023/03/19 02:21:07;;;;;;;40.97;27.55;;;13.40;1.00;;;;;;5055925;28;20108;-52
2023/03/19 02:24:17;;;;;;;41.50;28.13;;;13.30;1.00;;;;;;5046318;28;20147;-51
2023/03/19 02:26:45;;;;;;;40.60;28.30;;;13.30;1.00;;;;;;5041110;28;20044;-51
2023/03/19 02:29:10;;;;;;;39.22;29.15;;;13.30;1.00;;;;;;5038404;28;20037;-53
2023/03/19 02:31:36;;;;;;;41.72;29.30;;;13.30;1.00;;;;;;5047783;28;20033;-51
2023/03/19 02:34:20;;;;;;;45.30;30.65;;;13.30;1.00;;;;;;5036669;28;20021;-48
2023/03/19 02:36:54;;;;;;;40.42;28.33;;;13.30;1.00;;;;;;5039194;28;20045;-47
2023/03/19 02:39:28;;;;;;;41.72;29.75;;;13.20;1.00;;;;;;5043636;28;20360;-47
2023/03/19 02:41:56;;;;;;;41.17;29.83;;;13.10;1.00;;;;;;5055758;28;20033;-48
2023/03/19 02:44:21;;;;;;;40.55;29.60;;;13.20;1.00;;;;;;5054866;28;20029;-50
2023/03/19 02:46:47;;;;;;;40.67;28.55;;;13.10;1.00;;;;;;5054367;28;20498;-50
2023/03/19 02:49:13;;;;;;;40.75;28.40;;;13.10;1.00;;;;;;5042931;28;20467;-49
2023/03/19 02:51:38;;;;;;;42.95;29.85;;;13.20;1.00;;;;;;5053923;28;20037;-49
2023/03/19 02:54:04;;;;;;;40.60;29.77;;;13.10;1.00;;;;;;5045333;28;20032;-51
2023/03/19 02:56:30;;;;;;;37.25;28.17;;;13.10;1.00;;;;;;5052431;28;20414;-54
2023/03/19 02:58:56;;;;;;;38.55;28.92;;;13.10;1.00;;;;;;5054325;28;20110;-50
2023/03/19 03:01:22;;;;;;;43.72;30.08;;;13.10;1.00;;;;;;5050643;28;20489;-53
2023/03/19 03:03:47;;;;;;;46.80;31.35;;;13.10;1.00;;;;;;5044444;28;20045;-49
2023/03/19 03:06:13;;;;;;;41.03;29.30;;;13.00;1.00;;;;;;5054522;28;20017;-51
2023/03/19 03:08:39;;;;;;;43.35;30.00;;;13.00;1.00;;;;;;5055532;28;20028;-48
2023/03/19 03:11:05;;;;;;;44.90;29.70;;;12.90;1.00;;;;;;5052531;28;20025;-47
2023/03/19 03:13:31;;;;;;;43.55;29.13;;;12.90;1.00;;;;;;5051090;28;20029;-50
2023/03/19 03:15:56;;;;;;;35.28;27.38;;;12.90;1.00;;;;;;5053633;28;20049;-49
2023/03/19 03:18:22;;;;;;;38.95;27.75;;;12.90;1.00;;;;;;5055283;28;20037;-50
2023/03/19 03:20:48;;;;;;;37.67;27.95;;;12.80;1.00;;;;;;5054748;28;20039;-49
2023/03/19 03:23:13;;;;;;;40.35;27.77;;;12.80;1.00;;;;;;5054407;28;20025;-48
2023/03/19 03:25:39;;;;;;;36.88;27.15;;;12.80;1.00;;;;;;5052778;28;20083;-50
2023/03/19 03:28:05;;;;;;;38.28;26.65;;;12.80;1.00;;;;;;5054269;28;20029;-48
2023/03/19 03:30:31;;;;;;;40.63;28.13;;;12.80;1.00;;;;;;5042049;28;20390;-48
2023/03/19 03:32:57;;;;;;;36.42;27.98;;;12.80;1.00;;;;;;5055320;28;20028;-48
2023/03/19 03:35:23;;;;;;;39.83;28.10;;;12.70;1.00;;;;;;5054002;28;20028;-49
2023/03/19 03:37:49;;;;;;;37.20;27.30;;;12.70;1.00;;;;;;5054847;28;20158;-51
2023/03/19 03:40:16;;;;;;;36.53;26.45;;;12.70;1.00;;;;;;5053969;28;20017;-49
2023/03/19 03:42:42;;;;;;;36.97;25.80;;;12.70;1.00;;;;;;5041473;28;20481;-49
2023/03/19 03:45:09;;;;;;;35.90;27.90;;;12.70;1.00;;;;;;5053989;28;20053;-50
2023/03/19 03:47:36;;;;;;;34.83;27.33;;;12.60;1.00;;;;;;5049267;28;20033;-50
2023/03/19 03:50:03;;;;;;;36.13;26.90;;;12.60;1.00;;;;;;5054886;28;20025;-52
2023/03/19 03:52:30;;;;;;;34.88;28.35;;;12.60;1.00;;;;;;5053492;28;21903;-48
2023/03/19 03:54:59;;;;;;;38.45;26.80;;;12.60;1.00;;;;;;5054855;28;20470;-49
2023/03/19 03:57:26;;;;;;;36.80;26.73;;;12.60;1.00;;;;;;5052573;28;20049;-51
2023/03/19 03:59:52;;;;;;;32.80;25.95;;;12.60;1.00;;;;;;5042095;28;20032;-51
2023/03/19 04:02:18;;;;;;;35.90;26.38;;;12.60;1.00;;;;;;5054666;28;20493;-48
2023/03/19 04:04:43;;;;;;;35.92;27.27;;;12.60;1.00;;;;;;5052915;28;20063;-50
2023/03/19 04:07:09;;;;;;;40.42;26.55;;;12.50;1.00;;;;;;5054550;28;20449;-48
2023/03/19 04:09:36;;;;;;;36.75;27.33;;;12.50;1.00;;;;;;5053562;28;20028;-47
2023/03/19 04:12:01;;;;;;;36.72;28.38;;;12.40;1.00;;;;;;5054493;28;20041;-50
2023/03/19 04:14:27;;;;;;;36.75;27.08;;;12.50;1.00;;;;;;5053437;28;20098;-50
2023/03/19 04:16:53;;;;;;;40.97;28.02;;;12.50;1.00;;;;;;5053324;28;20072;-48
2023/03/19 04:19:19;;;;;;;37.08;26.42;;;12.40;1.00;;;;;;5053007;28;20021;-48
2023/03/19 04:21:45;;;;;;;32.47;25.23;;;12.40;1.00;;;;;;5053363;28;20033;-50
2023/03/19 04:24:11;;;;;;;35.63;25.92;;;12.40;1.00;;;;;;5054540;28;20036;-52
2023/03/19 04:26:37;;;;;;;36.28;26.33;;;12.40;1.00;;;;;;5048307;28;20422;-48
2023/03/19 04:29:03;;;;;;;36.17;26.00;;;12.40;1.00;;;;;;5051613;28;20021;-52
2023/03/19 04:31:29;;;;;;;32.33;25.83;;;12.40;1.00;;;;;;5053472;28;20041;-53
2023/03/19 04:33:55;;;;;;;31.83;24.63;;;12.30;1.00;;;;;;5039441;28;20489;-49
2023/03/19 04:36:21;;;;;;;33.53;25.38;;;12.40;1.00;;;;;;5053595;28;20037;-48
2023/03/19 04:38:46;;;;;;;34.85;26.45;;;12.30;1.00;;;;;;5048904;28;20368;-47
2023/03/19 04:41:15;;;;;;;34.75;25.63;;;12.30;1.00;;;;;;5048475;28;20039;-47
2023/03/19 04:43:41;;;;;;;33.75;25.98;;;12.30;1.00;;;;;;5050279;28;20540;-50
2023/03/19 04:46:09;;;;;;;37.40;25.67;;;12.30;1.00;;;;;;5041782;28;20111;-49
2023/03/19 04:48:35;;;;;;;35.65;25.58;;;12.30;1.00;;;;;;5052189;28;20458;-48
2023/03/19 04:51:02;;;;;;;36.90;24.77;;;12.30;1.00;;;;;;5043597;28;20116;-49
2023/03/19 04:53:28;;;;;;;37.00;26.52;;;12.30;1.00;;;;;;5047610;28;20017;-47
2023/03/19 04:55:54;;;;;;;33.65;25.98;;;12.20;1.00;;;;;;5050882;28;20025;-48
2023/03/19 04:58:20;;;;;;;35.50;27.70;;;12.20;1.00;;;;;;5052616;28;20041;-53
2023/03/19 05:00:46;;;;;;;37.88;26.63;;;12.20;1.00;;;;;;5053764;28;20028;-52
2023/03/19 05:03:15;;;;;;;33.85;25.52;;;12.10;1.00;;;;;;5052519;28;20055;-49
2023/03/19 05:05:41;;;;;;;35.22;24.88;;;12.20;1.00;;;;;;5053391;28;20029;-50
2023/03/19 05:08:08;;;;;;;33.22;26.92;;;12.10;1.00;;;;;;5052416;28;20082;-52
2023/03/19 05:10:35;;;;;;;32.28;25.05;;;12.10;1.00;;;;;;5051251;28;20044;-51
2023/03/19 05:13:01;;;;;;;34.15;26.65;;;12.10;1.00;;;;;;5049530;28;20029;-52
2023/03/19 05:15:27;;;;;;;38.95;26.83;;;12.10;1.00;;;;;;5050705;28;20060;-49
2023/03/19 05:17:53;;;;;;;32.97;25.02;;;12.10;1.00;;;;;;5052167;28;20040;-51
2023/03/19 05:20:20;;;;;;;31.85;26.05;;;12.10;1.00;;;;;;5053495;28;20041;-52
2023/03/19 05:22:46;;;;;;;32.83;24.77;;;12.00;1.00;;;;;;5053083;28;20498;-52
2023/03/19 05:25:12;;;;;;;39.58;27.10;;;12.00;1.00;;;;;;5048839;28;20025;-48
2023/03/19 05:27:39;;;;;;;35.83;25.85;;;12.00;1.00;;;;;;5051192;28;20087;-48
2023/03/19 05:30:06;;;;;;;33.88;25.65;;;12.00;1.00;;;;;;5039242;28;20039;-53
2023/03/19 05:32:32;;;;;;;35.42;25.80;;;12.00;1.00;;;;;;5052094;28;20074;-49
2023/03/19 05:34:57;;;;;;;35.10;26.80;;;11.90;1.00;;;;;;5053142;28;20033;-51
2023/03/19 05:37:23;;;;;;;33.45;26.15;;;12.00;1.00;;;;;;5052038;28;20466;-50
2023/03/19 05:39:50;;;;;;;34.47;26.50;;;12.00;1.00;;;;;;5049402;28;20029;-48
2023/03/19 05:42:16;;;;;;;32.15;24.25;;;12.00;1.00;;;;;;5049307;28;20098;-53
2023/03/19 05:44:41;;;;;;;35.70;27.35;;;12.00;1.00;;;;;;5049582;28;20063;-51
2023/03/19 05:47:09;;;;;;;33.58;24.98;;;12.00;1.00;;;;;;5051997;28;20024;-50
2023/03/19 05:49:34;;;;;;;38.80;27.48;;;12.00;1.00;;;;;;5051740;28;20054;-50
2023/03/19 05:52:00;;;;;;;30.98;25.08;;;12.00;1.00;;;;;;5052066;28;20116;-55
2023/03/19 05:54:26;;;;;;;38.17;26.85;;;12.00;1.00;;;;;;5049568;28;20147;-53
2023/03/19 05:56:51;;;;;;;34.15;26.60;;;12.10;1.00;;;;;;5037671;28;20038;-53
2023/03/19 05:59:17;;;;;;;32.83;25.98;;;12.10;1.00;;;;;;5051089;28;20298;-54
2023/03/19 06:01:43;;;;;;;37.15;26.73;;;12.00;1.00;;;;;;5038791;28;20352;-50
2023/03/19 06:04:08;;;;;;;31.88;25.92;;;12.00;1.00;;;;;;5051621;28;20024;-54
2023/03/19 06:06:34;;;;;;;32.25;26.23;;;12.00;1.00;;;;;;5052591;28;20043;-53
2023/03/19 06:09:00;;;;;;;33.88;24.65;;;12.00;1.00;;;;;;5049519;28;20032;-50
2023/03/19 06:11:26;;;;;;;34.97;26.17;;;12.00;1.00;;;;;;5052343;28;20021;-54
2023/03/19 06:13:51;;;;;;;34.00;26.15;;;12.00;1.00;;;;;;5043314;28;20124;-54
2023/03/19 06:16:17;;;;;;;35.55;26.85;;;12.00;1.00;;;;;;5048046;28;20029;-54
2023/03/19 06:18:44;;;;;;;32.95;25.60;;;12.00;1.00;;;;;;5045115;28;20038;-50
2023/03/19 06:21:10;;;;;;;30.55;24.90;;;12.00;1.00;;;;;;5050489;28;20364;-54
2023/03/19 06:23:36;;;;;;;28.52;24.63;;;12.00;1.00;;;;;;5046599;28;20041;-54
2023/03/19 06:26:01;;;;;;;34.25;25.67;;;12.00;1.00;;;;;;5046640;28;20032;-49
2023/03/19 06:28:27;;;;;;;32.90;25.52;;;12.00;1.00;;;;;;5052473;28;20055;-51
2023/03/19 06:30:55;;;;;;;33.33;25.67;;;12.00;1.00;;;;;;5040293;28;20036;-50
2023/03/19 06:33:21;;;;;;;34.42;26.73;;;12.00;1.00;;;;;;5050640;28;20074;-49
2023/03/19 06:35:48;;;;;;;32.53;25.80;;;12.00;1.00;;;;;;5052726;28;20104;-52
2023/03/19 06:38:13;;;;;;;33.17;25.92;;;11.90;1.00;;;;;;5051399;28;20098;-49
2023/03/19 06:40:39;;;;;;;35.88;24.90;;;11.90;1.00;;;;;;5049529;28;20431;-48
2023/03/19 06:43:04;;;;;;;36.05;25.52;;;12.00;1.00;;;;;;5052345;28;20112;-52
2023/03/19 06:45:30;;;;;;;31.65;25.70;;;12.00;1.00;;;;;;5049888;28;20552;-47
2023/03/19 06:47:56;;;;;;;33.22;25.50;;;12.00;1.00;;;;;;5052546;28;20501;-52
2023/03/19 06:50:22;;;;;;;29.73;24.38;;;12.10;1.00;;;;;;5051167;28;20025;-50
2023/03/19 06:52:48;;;;;;;36.08;26.35;;;12.10;1.00;;;;;;5052402;28;20041;-47
2023/03/19 06:55:13;;;;;;;28.05;24.05;;;12.10;1.00;;;;;;5047871;28;20498;-51
2023/03/19 06:57:39;;;;;;;33.30;24.83;;;12.10;1.00;;;;;;5050569;28;20061;-53
2023/03/19 07:00:09;;;;;;;30.85;23.35;;;12.10;1.00;;;;;;5045726;28;20016;-53
2023/03/19 07:02:35;;;;;;;34.58;24.48;;;12.20;1.00;;;;;;5047234;28;20486;-48
2023/03/19 07:05:01;;;;;;;33.15;25.08;;;12.10;1.00;;;;;;5051427;28;20533;-49
2023/03/19 07:07:26;;;;;;;31.42;24.27;;;12.10;1.00;;;;;;5052262;28;20107;-47
2023/03/19 07:09:52;;;;;;;32.63;24.92;;;12.20;1.00;;;;;;5041615;28;20029;-52
2023/03/19 07:12:18;;;;;;;27.58;23.70;;;12.20;1.00;;;;;;5055605;28;20036;-49
2023/03/19 07:14:43;;;;;;;31.55;23.60;;;12.20;1.00;;;;;;5052832;28;20384;-48
2023/03/19 07:17:09;;;;;;;28.23;23.42;;;12.20;1.00;;;;;;5046191;28;20029;-48
2023/03/19 07:19:35;;;;;;;26.75;22.27;;;12.20;1.00;;;;;;5054497;28;20070;-52
2023/03/19 07:22:01;;;;;;;32.70;24.25;;;12.20;1.00;;;;;;5048643;28;20021;-49
2023/03/19 07:24:26;;;;;;;28.63;23.25;;;12.20;1.00;;;;;;5055168;28;20039;-47
2023/03/19 07:26:52;;;;;;;27.77;23.38;;;12.20;1.00;;;;;;5051985;28;20025;-52
2023/03/19 07:29:18;;;;;;;29.40;22.83;;;12.30;1.00;;;;;;5052952;28;20403;-49
2023/03/19 07:31:43;;;;;;;28.38;23.08;;;12.30;1.00;;;;;;5044245;28;20056;-51
2023/03/19 07:34:09;;;;;;;28.23;23.33;;;12.30;1.00;;;;;;5053895;28;20024;-47
2023/03/19 07:36:34;;;;;;;25.58;21.77;;;12.30;1.00;;;;;;5054334;28;20102;-50
2023/03/19 07:39:00;;;;;;;29.25;23.00;;;12.40;1.00;;;;;;5054996;28;20033;-48
2023/03/19 07:41:26;;;;;;;25.75;22.95;;;12.40;1.00;;;;;;5048155;28;20029;-50
2023/03/19 07:43:52;;;;;;;30.05;23.45;;;12.40;1.00;;;;;;5053378;28;20479;-49
2023/03/19 07:46:17;;;;;;;25.80;22.77;;;12.50;1.00;;;;;;5043526;28;20094;-50
2023/03/19 07:48:43;;;;;;;31.60;22.73;;;12.60;1.00;;;;;;5050372;28;20036;-50
2023/03/19 07:51:09;;;;;;;28.15;23.38;;;12.70;1.00;;;;;;5054928;28;20020;-48
2023/03/19 07:53:35;;;;;;;29.20;23.33;;;12.80;1.00;;;;;;5053506;28;20372;-48
2023/03/19 07:56:00;;;;;;;30.38;22.58;;;12.80;1.00;;;;;;5054748;28;20025;-50
2023/03/19 07:58:26;;;;;;;30.90;24.33;;;12.90;1.00;;;;;;5053675;28;20029;-47
2023/03/19 08:00:53;;;;;;;27.23;23.85;;;12.90;1.00;;;;;;5046008;28;20026;-50
2023/03/19 08:03:18;;;;;;;27.95;22.75;;;12.90;1.00;;;;;;5053174;28;20032;-51
2023/03/19 08:05:47;;;;;;;28.83;23.55;;;12.90;1.00;;;;;;5054491;28;20037;-50
2023/03/19 08:08:14;;;;;;;31.40;24.35;;;12.90;1.00;;;;;;5049227;28;20021;-49
2023/03/19 08:10:39;;;;;;;27.00;22.38;;;13.00;1.00;;;;;;5054321;28;20070;-48
2023/03/19 08:13:05;;;;;;;29.27;22.60;;;13.00;1.00;;;;;;5053808;28;20033;-52
2023/03/19 08:15:31;;;;;;;29.42;23.70;;;13.00;1.00;;;;;;5050918;28;20044;-48
2023/03/19 08:18:02;;;;;;;31.17;23.33;;;13.10;1.00;;;;;;5054479;28;20380;-48
2023/03/19 08:20:28;;;;;;;27.38;22.95;;;13.10;1.00;;;;;;5044642;28;20099;-49
2023/03/19 08:22:55;;;;;;;28.63;22.98;;;13.20;1.00;;;;;;5052673;28;20025;-50
2023/03/19 08:25:21;;;;;;;30.10;23.42;;;13.20;1.00;;;;;;5052952;28;20035;-53
2023/03/19 08:27:47;;;;;;;28.77;23.25;;;13.30;1.00;;;;;;5054162;28;20033;-49
2023/03/19 08:30:13;;;;;;;33.10;23.60;;;13.30;1.00;;;;;;5054359;28;20032;-50
2023/03/19 08:32:39;;;;;;;31.25;24.63;;;13.30;1.00;;;;;;5052910;28;20021;-48
2023/03/19 08:35:06;;;;;;;30.23;23.20;;;13.40;1.00;;;;;;5054268;28;20077;-48
2023/03/19 08:37:31;;;;;;;29.88;24.77;;;13.50;1.00;;;;;;5049984;28;20086;-48
2023/03/19 08:39:57;;;;;;;28.83;24.30;;;13.50;1.00;;;;;;5052587;28;20421;-47
2023/03/19 08:42:23;;;;;;;28.60;25.10;;;13.50;1.00;;;;;;5054030;28;20037;-46
2023/03/19 08:44:49;;;;;;;32.88;23.85;;;13.60;1.00;;;;;;5046358;28;20501;-46
2023/03/19 08:47:15;;;;;;;30.73;24.23;;;13.70;1.00;;;;;;5053648;28;20027;-49
2023/03/19 08:49:41;;;;;;;29.55;25.45;;;13.70;1.00;;;;;;5051921;28;20021;-47
2023/03/19 08:52:07;;;;;;;30.17;25.23;;;13.80;1.00;;;;;;5039854;28;20025;-48
2023/03/19 08:54:33;;;;;;;33.17;24.17;;;13.80;1.00;;;;;;5047725;28;20095;-47
2023/03/19 08:57:00;;;;;;;31.95;24.40;;;13.90;1.00;;;;;;5053575;28;20064;-49
2023/03/19 08:59:26;;;;;;;30.95;24.45;;;13.90;1.00;;;;;;5051141;28;20025;-49
2023/03/19 09:01:52;;;;;;;34.70;24.77;;;13.90;1.00;;;;;;5053560;28;20039;-51
2023/03/19 09:04:22;;;;;;;31.17;23.98;;;14.00;1.00;;;;;;5052376;28;20021;-52
2023/03/19 09:06:51;;;;;;;33.40;24.98;;;14.00;1.00;;;;;;5053612;28;20029;-54
2023/03/19 09:09:21;;;;;;;30.73;24.65;;;14.00;1.00;;;;;;5049982;28;20029;-54
2023/03/19 09:11:47;;;;;;;29.30;23.55;;;14.10;1.00;;;;;;5053325;28;20032;-53
2023/03/19 09:14:15;;;;;;;28.33;23.65;;;14.20;1.00;;;;;;5051937;28;20053;-53
2023/03/19 09:16:42;;;;;;;27.75;23.08;;;14.30;1.00;;;;;;5053121;28;20112;-48
2023/03/19 09:19:08;;;;;;;24.98;22.00;;;14.30;1.00;;;;;;5051164;28;20039;-51
2023/03/19 09:21:35;;;;;;;25.45;21.63;;;14.40;1.00;;;;;;5040184;28;20144;-48
2023/03/19 09:24:01;;;;;;;23.83;21.05;;;14.40;1.00;;;;;;5047205;28;20043;-53
2023/03/19 09:26:27;;;;;;;28.63;20.35;;;14.50;1.00;;;;;;5050153;28;20528;-51
2023/03/19 09:28:53;;;;;;;23.48;20.25;;;14.50;1.00;;;;;;5050996;28;20021;-52
2023/03/19 09:31:19;;;;;;;25.85;20.77;;;14.60;1.00;;;;;;5053200;28;20362;-52
2023/03/19 09:33:44;;;;;;;23.13;18.92;;;14.60;1.00;;;;;;5048107;28;20371;-54
2023/03/19 09:36:10;;;;;;;24.88;20.33;;;14.70;1.00;;;;;;5052917;28;20126;-48
2023/03/19 09:38:36;;;;;;;25.92;21.00;;;14.70;1.00;;;;;;5050114;28;20499;-52
2023/03/19 09:41:28;;;;;;;31.05;23.27;;;14.70;1.00;;;;;;5050056;28;20112;-50
2023/03/19 09:44:00;;;;;;;28.38;21.20;;;14.80;1.00;;;;;;5042015;28;20029;-51
2023/03/19 09:46:31;;;;;;;25.98;21.10;;;14.90;1.00;;;;;;5042371;28;20029;-49
2023/03/19 09:49:03;;;;;;;27.13;21.75;;;14.90;1.00;;;;;;5051832;28;20074;-52
2023/03/19 09:51:51;;;;;;;26.88;21.45;;;15.00;1.00;;;;;;5052278;28;20059;-47
2023/03/19 09:54:47;;;;;;;27.67;23.30;;;15.00;1.00;;;;;;5050529;28;20494;-50
2023/03/19 09:57:13;;;;;;;23.63;18.60;;;15.00;1.00;;;;;;5039104;28;20371;-49
2023/03/19 09:59:39;;;;;;;21.13;18.45;;;15.00;1.00;;;;;;5051620;28;20068;-48
2023/03/19 10:02:30;;;;;;;23.08;18.92;;;15.00;1.00;;;;;;5052568;28;20025;-51
2023/03/19 10:05:07;;;;;;;24.83;20.48;;;15.10;1.00;;;;;;5052022;28;20048;-47
2023/03/19 10:07:48;;;;;;;24.58;19.52;;;15.30;1.00;;;;;;5052624;28;20092;-47
2023/03/19 10:10:47;;;;;;;26.13;20.38;;;15.40;1.00;;;;;;5048974;28;20043;-49
2023/03/19 10:13:21;;;;;;;23.80;20.33;;;15.50;1.00;;;;;;5041028;28;20029;-48
2023/03/19 10:15:50;;;;;;;25.15;19.30;;;15.70;1.00;;;;;;5051420;28;20044;-51
2023/03/19 10:18:26;;;;;;;25.15;19.25;;;15.80;1.00;;;;;;5051090;28;20029;-48
2023/03/19 10:20:57;;;;;;;26.65;20.30;;;16.00;1.00;;;;;;5045723;28;20466;-51
2023/03/19 10:23:47;;;;;;;24.02;18.60;;;16.00;1.00;;;;;;5040454;28;20033;-50
2023/03/19 10:26:18;;;;;;;28.35;20.15;;;16.10;1.00;;;;;;5049958;28;20021;-51
2023/03/19 10:28:50;;;;;;;26.30;20.67;;;16.30;1.00;;;;;;5052484;28;20567;-51
2023/03/19 10:31:40;;;;;;;23.42;19.10;;;16.50;1.00;;;;;;5050491;28;20017;-47
2023/03/19 10:34:16;;;;;;;25.60;20.95;;;16.50;1.00;;;;;;5049958;28;20036;-50
2023/03/19 10:36:42;;;;;;;26.05;20.73;;;16.40;1.00;;;;;;5052238;28;20360;-49
2023/03/19 10:39:07;;;;;;;24.38;21.25;;;16.40;1.00;;;;;;5054378;28;20219;-50
2023/03/19 10:41:52;;;;;;;29.00;20.23;;;16.50;1.00;;;;;;5056166;28;20104;-53
2023/03/19 10:44:31;;;;;;;26.33;20.48;;;16.60;1.00;;;;;;5054072;28;20041;-52
2023/03/19 10:46:58;;;;;;;24.77;19.63;;;16.90;1.00;;;;;;5054494;28;20078;-53
2023/03/19 10:49:25;;;;;;;22.88;20.00;;;17.00;1.00;;;;;;5056065;28;20398;-48
2023/03/19 10:51:51;;;;;;;24.10;19.08;;;17.20;1.00;;;;;;5054918;28;20378;-50
2023/03/19 10:54:27;;;;;;;22.20;19.25;;;17.40;1.00;;;;;;5054472;28;20047;-49
2023/03/19 10:57:00;;;;;;;21.20;19.00;;;17.40;1.00;;;;;;5055760;28;20063;-49
2023/03/19 10:59:35;;;;;;;27.85;20.08;;;17.40;1.00;;;;;;5053474;28;20055;-50
2023/03/19 11:02:15;;;;;;;26.77;18.80;;;17.50;1.00;;;;;;5042081;28;20029;-50
2023/03/19 11:05:12;;;;;;;23.42;18.48;;;17.50;1.00;;;;;;5052376;28;20367;-50
2023/03/19 11:07:39;;;;;;;21.58;18.33;;;17.70;1.00;;;;;;5054157;28;20037;-48
2023/03/19 11:10:13;;;;;;;21.38;18.50;;;17.60;1.00;;;;;;5054606;28;20021;-46
2023/03/19 11:12:39;;;;;;;20.45;16.65;;;17.60;1.00;;;;;;5055656;28;20033;-48
2023/03/19 11:15:19;;;;;;;23.15;18.10;;;17.60;1.00;;;;;;5053642;28;20056;-50
2023/03/19 11:17:57;;;;;;;20.40;18.00;;;17.80;1.00;;;;;;5053114;28;20035;-49
2023/03/19 11:20:32;;;;;;;19.88;17.27;;;18.00;1.00;;;;;;5054513;28;20021;-49
2023/03/19 11:23:01;;;;;;;18.92;16.77;;;18.10;1.00;;;;;;5042848;28;20033;-49
2023/03/19 11:25:45;;;;;;;21.30;16.75;;;18.20;1.00;;;;;;5051671;28;20469;-50
2023/03/19 11:28:17;;;;;;;23.75;18.67;;;18.20;1.00;;;;;;5046335;28;20378;-48
2023/03/19 11:30:52;;;;;;;20.10;18.05;;;18.30;1.00;;;;;;5047358;28;20031;-51
2023/03/19 11:33:30;;;;;;;19.20;16.50;;;18.30;1.00;;;;;;5054099;28;20126;-49
2023/03/19 11:36:07;;;;;;;20.10;17.23;;;18.40;1.00;;;;;;5046388;28;20032;-48
2023/03/19 11:38:54;;;;;;;20.05;17.65;;;18.60;1.00;;;;;;5054761;28;20119;-53
2023/03/19 11:41:32;;;;;;;20.52;17.92;;;18.60;1.00;;;;;;5047337;28;20475;-50
2023/03/19 11:44:09;;;;;;;21.45;16.77;;;18.80;1.00;;;;;;5054193;28;20021;-46
2023/03/19 11:46:53;;;;;;;23.92;18.10;;;18.90;1.00;;;;;;5042101;28;20036;-49
2023/03/19 11:49:24;;;;;;;19.30;16.73;;;19.00;1.00;;;;;;5037912;28;20389;-47
2023/03/19 11:51:55;;;;;;;19.27;17.17;;;19.10;1.00;;;;;;5055142;28;20029;-49
2023/03/19 11:54:55;;;;;;;18.10;15.43;;;19.20;1.00;;;;;;5054259;28;20085;-47
2023/03/19 11:57:39;;;;;;;19.58;16.70;;;19.30;1.00;;;;;;5054711;28;20509;-47
2023/03/19 12:00:28;;;;;;;20.05;16.98;;;19.40;1.00;;;;;;5051027;28;20021;-49
2023/03/19 12:03:18;;;;;;;17.00;15.13;;;19.40;1.00;;;;;;5041819;28;20482;-48
2023/03/19 12:06:00;;;;;;;18.75;15.13;;;19.50;1.00;;;;;;5052387;28;20125;-52
2023/03/19 12:08:31;;;;;;;18.75;15.18;;;19.80;1.00;;;;;;5054616;28;20036;-49
2023/03/19 12:11:12;;;;;;;18.25;14.70;;;20.00;1.00;;;;;;5053434;28;20025;-47
2023/03/19 12:14:10;;;;;;;19.23;15.68;;;20.10;1.00;;;;;;5052075;28;20053;-49
2023/03/19 12:16:56;;;;;;;21.73;15.65;;;20.20;1.00;;;;;;5039907;28;20119;-51
2023/03/19 12:20:02;;;;;;;19.15;15.73;;;20.20;1.00;;;;;;5050510;28;20098;-48
2023/03/19 12:22:59;;;;;;;19.10;15.50;;;20.30;1.00;;;;;;5047279;28;20036;-50
2023/03/19 12:25:41;;;;;;;19.35;15.93;;;20.30;1.00;;;;;;5044156;28;20020;-49
2023/03/19 12:28:13;;;;;;;21.60;16.73;;;20.40;1.00;;;;;;5052959;28;20513;-48
2023/03/19 12:31:11;;;;;;;18.60;15.02;;;20.80;1.00;;;;;;5049718;28;20056;-49
2023/03/19 12:33:55;;;;;;;18.63;14.88;;;20.80;1.00;;;;;;5041865;28;20021;-52
2023/03/19 12:36:27;;;;;;;18.87;15.17;;;20.90;1.00;;;;;;5046884;28;20061;-51
2023/03/19 12:39:10;;;;;;;16.40;14.70;;;20.70;1.00;;;;;;5052634;28;20490;-50
2023/03/19 12:41:40;;;;;;;15.70;13.57;;;20.40;1.00;;;;;;5050170;28;20435;-48
2023/03/19 12:44:17;;;;;;;15.63;14.02;;;20.40;1.00;;;;;;5051903;28;20020;-48
2023/03/19 12:46:52;;;;;;;17.00;15.13;;;20.00;1.00;;;;;;5045989;28;20398;-52
2023/03/19 12:49:41;;;;;;;17.17;15.35;;;20.10;1.00;;;;;;5054218;28;20363;-47